Albany, Australia
Current Conditions -  °F | °C
As of 11:00 AM on Sunday 21 Dec 2014 (Local Time) from YABA Reporting Station
Broken Clouds Broken Clouds  
Wind Chill: 64°   Ceiling: 3000
Heat Index: 64°   Visibility: 6mi
Dew Point: 48°   Wind: 9mph
Humidity: 56%   Direction: 170°S
Pressure: 30.12"   Gusts: NA
Location:  35.02°S, 117.88°E
Report Text: YABA 210300Z 17008KT 9999 BKN030 18/09 Q1020
Loading
Personal Weather Stations






























Interactive Weather Map New forecast layout! Learn more

10-Day Weather Forecast

Advertisements
Track Severe Weather on mobile